Time;durP1;ratioP1;P1;durP2;ratioP2;P2;SDS_P1;SDS_P2;PMS_P1;PMS_P2;Temp;Humidity;BMP_temperature;BMP_pressure;BME280_temperature;BME280_humidity;BME280_pressure;Samples;Min_cycle;Max_cycle;Signal;HPM_P1;HPM_P2
2022/04/09 00:00:22;;;;;;;;;;;;;;;;;;2214007;59;1921;-72
2022/04/09 00:02:58;;;;;;;;;;;;;;;;;;2217497;59;1294;-71
2022/04/09 00:05:31;;;;;;;;;;;;;;;;;;2216648;58;2035;-71
2022/04/09 00:08:05;;;;;;;;;;;;;;;;;;2214783;66;1190;-72
2022/04/09 00:10:38;;;;;;;;;;;;;;;;;;2216925;66;1205;-73
2022/04/09 00:13:11;;;;;;;;;;;;;;;;;;2217371;59;1386;-72
2022/04/09 00:15:44;;;;;;;;;;;;;;;;;;2217599;59;1148;-72
2022/04/09 00:18:20;;;;;;;;;;;;;;;;;;2216184;58;1828;-72
2022/04/09 00:20:55;;;;;;;;;;;;;;;;;;2217078;58;1976;-72
2022/04/09 00:23:28;;;;;;;;;;;;;;;;;;2217766;59;1924;-71
2022/04/09 00:26:02;;;;;;;;;;;;;;;;;;2211821;59;1224;-72
2022/04/09 00:28:35;;;;;;;;;;;;;;;;;;2213467;66;1076;-72
2022/04/09 00:31:08;;;;;;;;;;;;;;;;;;2217126;59;1732;-72
2022/04/09 00:33:44;;;;;;;;;;;;;;;;;;2216941;58;1631;-72
2022/04/09 00:36:17;;;;;;;;;;;;;;;;;;2218511;66;1164;-72
2022/04/09 00:38:50;;;;;;;;;;;;;;;;;;2219593;66;1165;-72
2022/04/09 00:41:24;;;;;;;;;;;;;;;;;;2217438;59;1909;-73
2022/04/09 00:43:57;;;;;;;;;;;;;;;;;;2218539;58;2119;-70
2022/04/09 00:46:30;;;;;;;;;;;;;;;;;;2202087;59;1207;-70
2022/04/09 00:49:06;;;;;;;;;;;;;;;;;;2206509;58;1301;-71
2022/04/09 00:51:42;;;;;;;;;;;;;;;;;;2211267;59;1178;-71
2022/04/09 00:54:16;;;;;;;;;;;;;;;;;;2208454;59;1515;-71
2022/04/09 00:56:51;;;;;;;;;;;;;;;;;;2221959;58;2219;-70
2022/04/09 00:59:25;;;;;;;;;;;;;;;;;;2216639;58;1958;-69
2022/04/09 01:01:59;;;;;;;;;;;;;;;;;;2218802;58;1984;-69
2022/04/09 01:04:35;;;;;;;;;;;;;;;;;;2221818;58;1709;-69
2022/04/09 01:07:08;;;;;;;;;;;;;;;;;;2222409;58;1175;-69
2022/04/09 01:09:41;;;;;;;;;;;;;;;;;;2222834;60;1229;-69
2022/04/09 01:12:16;;;;;;;;;;;;;;;;;;2222612;58;1305;-67
2022/04/09 01:14:49;;;;;;;;;;;;;;;;;;2218388;59;1259;-68
2022/04/09 01:17:22;;;;;;;;;;;;;;;;;;2222813;66;1162;-69
2022/04/09 01:19:58;;;;;;;;;;;;;;;;;;2221966;58;2013;-69
2022/04/09 01:22:34;;;;;;;;;;;;;;;;;;2221978;58;1990;-68
2022/04/09 01:25:07;;;;;;;;;;;;;;;;;;2221744;58;1755;-69
2022/04/09 01:27:41;;;;;;;;;;;;;;;;;;2221139;59;1093;-68
2022/04/09 01:30:14;;;;;;;;;;;;;;;;;;2223014;58;1280;-69
2022/04/09 01:32:48;;;;;;;;;;;;;;;;;;2222141;66;1370;-68
2022/04/09 01:35:21;;;;;;;;;;;;;;;;;;2221945;58;1195;-69
2022/04/09 01:37:57;;;;;;;;;;;;;;;;;;2221810;66;1116;-69
2022/04/09 01:40:30;;;;;;;;;;;;;;;;;;2222300;58;1983;-69
2022/04/09 01:43:03;;;;;;;;;;;;;;;;;;2221132;66;1124;-69
2022/04/09 01:45:36;;;;;;;;;;;;;;;;;;2221851;58;1866;-69
2022/04/09 01:48:09;;;;;;;;;;;;;;;;;;2221615;58;1377;-69
2022/04/09 01:50:43;;;;;;;;;;;;;;;;;;2217616;58;1246;-68
2022/04/09 01:53:19;;;;;;;;;;;;;;;;;;2211979;60;1191;-69
2022/04/09 01:55:52;;;;;;;;;;;;;;;;;;2220050;58;1265;-69
2022/04/09 01:58:25;;;;;;;;;;;;;;;;;;2221724;58;1710;-69
2022/04/09 02:00:59;;;;;;;;;;;;;;;;;;2222562;66;1986;-69
2022/04/09 02:03:32;;;;;;;;;;;;;;;;;;2222034;58;1749;-69
2022/04/09 02:06:06;;;;;;;;;;;;;;;;;;2222280;58;1168;-69
2022/04/09 02:08:41;;;;;;;;;;;;;;;;;;2221970;66;1302;-69
2022/04/09 02:11:15;;;;;;;;;;;;;;;;;;2222979;66;1136;-69
2022/04/09 02:13:48;;;;;;;;;;;;;;;;;;2216517;58;1270;-69
2022/04/09 02:16:21;;;;;;;;;;;;;;;;;;2218535;58;1200;-69
2022/04/09 02:18:54;;;;;;;;;;;;;;;;;;2222020;58;1942;-69
2022/04/09 02:21:27;;;;;;;;;;;;;;;;;;2222448;58;1940;-69
2022/04/09 02:24:03;;;;;;;;;;;;;;;;;;2222247;58;1931;-69
2022/04/09 02:26:36;;;;;;;;;;;;;;;;;;2221051;59;1160;-69
2022/04/09 02:29:10;;;;;;;;;;;;;;;;;;2218942;58;1484;-69
2022/04/09 02:31:43;;;;;;;;;;;;;;;;;;2222212;66;1229;-69
2022/04/09 02:34:16;;;;;;;;;;;;;;;;;;2221479;58;1256;-69
2022/04/09 02:36:49;;;;;;;;;;;;;;;;;;2218455;66;1249;-69
2022/04/09 02:39:25;;;;;;;;;;;;;;;;;;2221804;58;1245;-69
2022/04/09 02:41:58;;;;;;;;;;;;;;;;;;2220788;66;1977;-69
2022/04/09 02:44:32;;;;;;;;;;;;;;;;;;2221258;58;1706;-69
2022/04/09 02:47:06;;;;;;;;;;;;;;;;;;2222386;58;1411;-69
2022/04/09 02:49:39;;;;;;;;;;;;;;;;;;2222074;66;1246;-69
2022/04/09 02:52:12;;;;;;;;;;;;;;;;;;2222026;59;1228;-69
2022/04/09 02:54:48;;;;;;;;;;;;;;;;;;2221326;58;1190;-69
2022/04/09 02:57:21;;;;;;;;;;;;;;;;;;2221581;58;1214;-69
2022/04/09 02:59:54;;;;;;;;;;;;;;;;;;2221750;66;1196;-69
2022/04/09 03:02:28;;;;;;;;;;;;;;;;;;2222280;66;1928;-69
2022/04/09 03:05:01;;;;;;;;;;;;;;;;;;2220588;58;1810;-69
2022/04/09 03:07:35;;;;;;;;;;;;;;;;;;2214301;66;1214;-69
2022/04/09 03:10:11;;;;;;;;;;;;;;;;;;2213296;58;1288;-69
2022/04/09 03:12:45;;;;;;;;;;;;;;;;;;2217258;58;1314;-69
2022/04/09 03:15:18;;;;;;;;;;;;;;;;;;2214848;66;1170;-69
2022/04/09 03:17:52;;;;;;;;;;;;;;;;;;2222290;58;1193;-69
2022/04/09 03:20:25;;;;;;;;;;;;;;;;;;2221997;58;1957;-69
2022/04/09 03:22:58;;;;;;;;;;;;;;;;;;2221868;58;1948;-69
2022/04/09 03:25:34;;;;;;;;;;;;;;;;;;2221311;58;1571;-69
2022/04/09 03:28:07;;;;;;;;;;;;;;;;;;2222710;66;1190;-69
2022/04/09 03:30:40;;;;;;;;;;;;;;;;;;2221795;58;1305;-69
2022/04/09 03:33:13;;;;;;;;;;;;;;;;;;2221607;66;1328;-69
2022/04/09 03:35:47;;;;;;;;;;;;;;;;;;2221586;59;1147;-69
2022/04/09 03:38:20;;;;;;;;;;;;;;;;;;2221132;58;1793;-69
2022/04/09 03:40:56;;;;;;;;;;;;;;;;;;2221288;66;1067;-69
2022/04/09 03:43:30;;;;;;;;;;;;;;;;;;2220946;58;1719;-69
2022/04/09 03:46:03;;;;;;;;;;;;;;;;;;2218559;66;1255;-69
2022/04/09 03:48:36;;;;;;;;;;;;;;;;;;2221557;58;1270;-69
2022/04/09 03:51:10;;;;;;;;;;;;;;;;;;2221732;58;1250;-69
2022/04/09 03:53:43;;;;;;;;;;;;;;;;;;2221911;66;1198;-70
2022/04/09 03:56:19;;;;;;;;;;;;;;;;;;2222452;66;1227;-69
2022/04/09 03:58:52;;;;;;;;;;;;;;;;;;2222074;66;1256;-69
2022/04/09 04:01:27;;;;;;;;;;;;;;;;;;2220157;59;1928;-69
2022/04/09 04:04:00;;;;;;;;;;;;;;;;;;2221797;58;1856;-70
2022/04/09 04:06:33;;;;;;;;;;;;;;;;;;2221993;58;1102;-70
2022/04/09 04:09:06;;;;;;;;;;;;;;;;;;2222934;59;1275;-69
2022/04/09 04:11:42;;;;;;;;;;;;;;;;;;2221640;58;1528;-69
2022/04/09 04:14:15;;;;;;;;;;;;;;;;;;2218454;59;1605;-69
2022/04/09 04:16:48;;;;;;;;;;;;;;;;;;2222306;58;1235;-69
2022/04/09 04:19:21;;;;;;;;;;;;;;;;;;2221527;58;1872;-69
2022/04/09 04:21:55;;;;;;;;;;;;;;;;;;2222824;58;1924;-69
2022/04/09 04:24:28;;;;;;;;;;;;;;;;;;2221622;58;1831;-69
2022/04/09 04:27:04;;;;;;;;;;;;;;;;;;2222521;66;1076;-70
2022/04/09 04:29:37;;;;;;;;;;;;;;;;;;2221994;58;1686;-69
2022/04/09 04:32:10;;;;;;;;;;;;;;;;;;2222588;66;1326;-69
2022/04/09 04:34:43;;;;;;;;;;;;;;;;;;2222569;66;1246;-69
2022/04/09 04:37:16;;;;;;;;;;;;;;;;;;2223135;66;1157;-68
2022/04/09 04:39:49;;;;;;;;;;;;;;;;;;2221555;58;1175;-69
2022/04/09 04:42:25;;;;;;;;;;;;;;;;;;2222270;66;1931;-68
2022/04/09 04:44:58;;;;;;;;;;;;;;;;;;2221522;58;1527;-68
2022/04/09 04:47:32;;;;;;;;;;;;;;;;;;2222377;58;1254;-69
2022/04/09 04:50:05;;;;;;;;;;;;;;;;;;2223246;66;1304;-68
2022/04/09 04:52:38;;;;;;;;;;;;;;;;;;2220858;58;1627;-69
2022/04/09 04:55:12;;;;;;;;;;;;;;;;;;2220652;58;1212;-69
2022/04/09 04:57:50;;;;;;;;;;;;;;;;;;2220776;58;1273;-68
2022/04/09 05:00:24;;;;;;;;;;;;;;;;;;2218552;59;1688;-69
2022/04/09 05:02:58;;;;;;;;;;;;;;;;;;2222382;66;1935;-68
2022/04/09 05:05:31;;;;;;;;;;;;;;;;;;2221050;58;1956;-68
2022/04/09 05:08:04;;;;;;;;;;;;;;;;;;2221736;60;1215;-69
2022/04/09 05:10:37;;;;;;;;;;;;;;;;;;2222648;66;1123;-69
2022/04/09 05:13:13;;;;;;;;;;;;;;;;;;2221668;58;1292;-68
2022/04/09 05:15:46;;;;;;;;;;;;;;;;;;2220802;66;1222;-69
2022/04/09 05:18:19;;;;;;;;;;;;;;;;;;2221642;66;1222;-68
2022/04/09 05:20:52;;;;;;;;;;;;;;;;;;2221242;58;1918;-68
2022/04/09 05:23:25;;;;;;;;;;;;;;;;;;2222338;58;1949;-68
2022/04/09 05:25:59;;;;;;;;;;;;;;;;;;2222769;66;1179;-68
2022/04/09 05:28:35;;;;;;;;;;;;;;;;;;2221427;66;1197;-68
2022/04/09 05:31:09;;;;;;;;;;;;;;;;;;2222104;58;1453;-69
2022/04/09 05:33:42;;;;;;;;;;;;;;;;;;2222359;66;1178;-68
2022/04/09 05:36:15;;;;;;;;;;;;;;;;;;2220880;58;1990;-69
2022/04/09 05:38:48;;;;;;;;;;;;;;;;;;2222317;59;1185;-68
2022/04/09 05:41:21;;;;;;;;;;;;;;;;;;2221267;58;1701;-68
2022/04/09 05:43:57;;;;;;;;;;;;;;;;;;2221382;58;1927;-68
2022/04/09 05:46:30;;;;;;;;;;;;;;;;;;2221394;58;1192;-68
2022/04/09 05:49:03;;;;;;;;;;;;;;;;;;2222534;58;1344;-68
2022/04/09 05:51:36;;;;;;;;;;;;;;;;;;2222025;66;1219;-69
2022/04/09 05:54:09;;;;;;;;;;;;;;;;;;2221342;66;1265;-69
2022/04/09 05:56:43;;;;;;;;;;;;;;;;;;2220871;66;1090;-69
2022/04/09 05:59:19;;;;;;;;;;;;;;;;;;2221577;58;1112;-69
2022/04/09 06:01:52;;;;;;;;;;;;;;;;;;2221319;58;1934;-69
2022/04/09 06:04:25;;;;;;;;;;;;;;;;;;2221232;58;1757;-69
2022/04/09 06:06:58;;;;;;;;;;;;;;;;;;2222348;66;1048;-68
2022/04/09 06:09:32;;;;;;;;;;;;;;;;;;2221168;58;1716;-68
2022/04/09 06:12:06;;;;;;;;;;;;;;;;;;2222045;58;1411;-69
2022/04/09 06:14:42;;;;;;;;;;;;;;;;;;2219306;58;1595;-68
2022/04/09 06:17:15;;;;;;;;;;;;;;;;;;2217861;66;1206;-69
2022/04/09 06:19:48;;;;;;;;;;;;;;;;;;2218254;58;1920;-69
2022/04/09 06:22:21;;;;;;;;;;;;;;;;;;2219518;58;1979;-68
2022/04/09 06:24:54;;;;;;;;;;;;;;;;;;2217857;58;1735;-68
2022/04/09 06:27:28;;;;;;;;;;;;;;;;;;2217680;66;1115;-69
2022/04/09 06:30:04;;;;;;;;;;;;;;;;;;2217903;58;1790;-69
2022/04/09 06:32:38;;;;;;;;;;;;;;;;;;2218305;59;1271;-68
2022/04/09 06:35:12;;;;;;;;;;;;;;;;;;2218712;59;1271;-69
2022/04/09 06:37:45;;;;;;;;;;;;;;;;;;2221782;58;1279;-69
2022/04/09 06:40:18;;;;;;;;;;;;;;;;;;2220182;58;1679;-69
2022/04/09 06:42:51;;;;;;;;;;;;;;;;;;2220775;59;1935;-69
2022/04/09 06:45:28;;;;;;;;;;;;;;;;;;2204656;53;3456;-69
2022/04/09 06:48:01;;;;;;;;;;;;;;;;;;2196831;59;1192;-69
2022/04/09 06:50:34;;;;;;;;;;;;;;;;;;2197087;59;1555;-70
2022/04/09 06:53:08;;;;;;;;;;;;;;;;;;2201268;59;1847;-69
2022/04/09 06:55:41;;;;;;;;;;;;;;;;;;2199589;59;1559;-69
2022/04/09 06:58:14;;;;;;;;;;;;;;;;;;2197836;66;1097;-69
2022/04/09 07:00:50;;;;;;;;;;;;;;;;;;2202522;59;1379;-69
2022/04/09 07:03:23;;;;;;;;;;;;;;;;;;2199817;59;1989;-69
2022/04/09 07:05:57;;;;;;;;;;;;;;;;;;2201185;59;1669;-69
2022/04/09 07:08:30;;;;;;;;;;;;;;;;;;2202859;66;1365;-69
2022/04/09 07:11:03;;;;;;;;;;;;;;;;;;2201220;59;1595;-70
2022/04/09 07:13:36;;;;;;;;;;;;;;;;;;2203493;59;1550;-70
2022/04/09 07:16:12;;;;;;;;;;;;;;;;;;2209725;59;1487;-70
2022/04/09 07:18:46;;;;;;;;;;;;;;;;;;2205882;59;2062;-70
2022/04/09 07:21:20;;;;;;;;;;;;;;;;;;2200031;59;2581;-70
2022/04/09 07:23:53;;;;;;;;;;;;;;;;;;2198953;59;2731;-70
2022/04/09 07:26:26;;;;;;;;;;;;;;;;;;2202302;59;1832;-70
2022/04/09 07:28:59;;;;;;;;;;;;;;;;;;2199528;66;1346;-70
2022/04/09 07:31:36;;;;;;;;;;;;;;;;;;2202602;59;1716;-71
2022/04/09 07:34:10;;;;;;;;;;;;;;;;;;2203827;59;1296;-71
2022/04/09 07:36:43;;;;;;;;;;;;;;;;;;2203627;58;1629;-71
2022/04/09 07:39:16;;;;;;;;;;;;;;;;;;2211087;66;1148;-70
2022/04/09 07:41:50;;;;;;;;;;;;;;;;;;2198480;59;1811;-70
2022/04/09 07:44:23;;;;;;;;;;;;;;;;;;2196664;59;1988;-70
2022/04/09 07:46:59;;;;;;;;;;;;;;;;;;2198832;67;1094;-70
2022/04/09 07:49:32;;;;;;;;;;;;;;;;;;2203460;59;1119;-70
2022/04/09 07:52:06;;;;;;;;;;;;;;;;;;2196982;59;1711;-70
2022/04/09 07:54:39;;;;;;;;;;;;;;;;;;2202736;59;1223;-71
2022/04/09 07:57:12;;;;;;;;;;;;;;;;;;2204769;59;1894;-71
2022/04/09 07:59:46;;;;;;;;;;;;;;;;;;2197500;59;1689;-70
2022/04/09 08:02:22;;;;;;;;;;;;;;;;;;2199310;59;1277;-71
2022/04/09 08:04:55;;;;;;;;;;;;;;;;;;2204469;59;1948;-71
2022/04/09 08:07:28;;;;;;;;;;;;;;;;;;2203709;59;1255;-71
2022/04/09 08:10:01;;;;;;;;;;;;;;;;;;2205503;59;1866;-71
2022/04/09 08:12:35;;;;;;;;;;;;;;;;;;2202643;59;1362;-71
2022/04/09 08:15:09;;;;;;;;;;;;;;;;;;2204800;59;1285;-71
2022/04/09 08:17:45;;;;;;;;;;;;;;;;;;2205927;59;1539;-71
2022/04/09 08:20:20;;;;;;;;;;;;;;;;;;2205751;59;1846;-71
2022/04/09 08:22:54;;;;;;;;;;;;;;;;;;2203657;59;1979;-71
2022/04/09 08:25:27;;;;;;;;;;;;;;;;;;2203964;59;1685;-71
2022/04/09 08:28:00;;;;;;;;;;;;;;;;;;2205004;59;1514;-71
2022/04/09 08:30:33;;;;;;;;;;;;;;;;;;2201175;59;1339;-71
2022/04/09 08:33:10;;;;;;;;;;;;;;;;;;2201638;66;1212;-71
2022/04/09 08:35:43;;;;;;;;;;;;;;;;;;2206478;59;1322;-71
2022/04/09 08:38:16;;;;;;;;;;;;;;;;;;2203216;66;1287;-71
2022/04/09 08:40:50;;;;;;;;;;;;;;;;;;2202054;59;1646;-71
2022/04/09 08:43:23;;;;;;;;;;;;;;;;;;2202530;67;1932;-71
2022/04/09 08:45:56;;;;;;;;;;;;;;;;;;2199097;59;1684;-71
2022/04/09 08:48:32;;;;;;;;;;;;;;;;;;2201680;59;1282;-71
2022/04/09 08:51:06;;;;;;;;;;;;;;;;;;2205223;66;1195;-71
2022/04/09 08:53:40;;;;;;;;;;;;;;;;;;2205294;66;1212;-71
2022/04/09 08:56:15;;;;;;;;;;;;;;;;;;2205454;59;1199;-71
2022/04/09 08:58:48;;;;;;;;;;;;;;;;;;2205955;59;1322;-71
2022/04/09 09:01:22;;;;;;;;;;;;;;;;;;2207851;59;1242;-72
2022/04/09 09:03:59;;;;;;;;;;;;;;;;;;2205491;59;1967;-71
2022/04/09 09:06:34;;;;;;;;;;;;;;;;;;2208158;59;1235;-72
2022/04/09 09:09:14;;;;;;;;;;;;;;;;;;2207789;66;1229;-72
2022/04/09 09:11:48;;;;;;;;;;;;;;;;;;2203623;59;1311;-72
2022/04/09 09:14:28;;;;;;;;;;;;;;;;;;2203173;59;1642;-72
2022/04/09 09:17:02;;;;;;;;;;;;;;;;;;2201734;59;1197;-72
2022/04/09 09:19:45;;;;;;;;;;;;;;;;;;2205905;59;2054;-72
2022/04/09 09:22:18;;;;;;;;;;;;;;;;;;2209641;66;1266;-72
2022/04/09 09:25:03;;;;;;;;;;;;;;;;;;2204573;59;1931;-72
2022/04/09 09:27:37;;;;;;;;;;;;;;;;;;2203755;59;1625;-72
2022/04/09 09:30:11;;;;;;;;;;;;;;;;;;2198972;59;1159;-73
2022/04/09 09:32:45;;;;;;;;;;;;;;;;;;2199881;66;1169;-72
2022/04/09 09:35:21;;;;;;;;;;;;;;;;;;2203046;66;1268;-72
2022/04/09 09:37:54;;;;;;;;;;;;;;;;;;2202397;59;1714;-72
2022/04/09 09:40:33;;;;;;;;;;;;;;;;;;2202807;59;1154;-72
2022/04/09 09:43:16;;;;;;;;;;;;;;;;;;2191011;59;2043;-72
2022/04/09 09:45:50;;;;;;;;;;;;;;;;;;2204578;59;1853;-72
2022/04/09 09:48:24;;;;;;;;;;;;;;;;;;2201910;59;1806;-72
2022/04/09 09:51:02;;;;;;;;;;;;;;;;;;2202787;59;2180;-72
2022/04/09 09:53:37;;;;;;;;;;;;;;;;;;2198556;59;2413;-73
2022/04/09 09:56:10;;;;;;;;;;;;;;;;;;2206216;66;1168;-73
2022/04/09 09:58:44;;;;;;;;;;;;;;;;;;2201240;59;1177;-72
2022/04/09 10:01:17;;;;;;;;;;;;;;;;;;2206745;66;1242;-72
2022/04/09 10:03:50;;;;;;;;;;;;;;;;;;2209648;59;2329;-72
2022/04/09 10:06:26;;;;;;;;;;;;;;;;;;2201313;59;1927;-72
2022/04/09 10:09:00;;;;;;;;;;;;;;;;;;2207492;66;1073;-72
2022/04/09 10:11:36;;;;;;;;;;;;;;;;;;2205062;59;1887;-73
2022/04/09 10:14:10;;;;;;;;;;;;;;;;;;2205404;59;1261;-73
2022/04/09 10:16:46;;;;;;;;;;;;;;;;;;2200707;59;2317;-72
2022/04/09 10:19:20;;;;;;;;;;;;;;;;;;2199531;59;2479;-72
2022/04/09 10:21:57;;;;;;;;;;;;;;;;;;2212358;59;1146;-73
2022/04/09 10:24:31;;;;;;;;;;;;;;;;;;2202293;59;1938;-72
2022/04/09 10:27:06;;;;;;;;;;;;;;;;;;2202178;59;2807;-73
2022/04/09 10:29:49;;;;;;;;;;;;;;;;;;2201584;59;1844;-73
2022/04/09 10:32:41;;;;;;;;;;;;;;;;;;2206860;59;1217;-73
2022/04/09 10:35:24;;;;;;;;;;;;;;;;;;2207072;59;1227;-72
2022/04/09 10:38:16;;;;;;;;;;;;;;;;;;2198222;59;1786;-72
2022/04/09 10:41:13;;;;;;;;;;;;;;;;;;2199756;59;1626;-73
2022/04/09 10:43:49;;;;;;;;;;;;;;;;;;2201699;59;1926;-73
2022/04/09 10:46:33;;;;;;;;;;;;;;;;;;2204650;59;1245;-73
2022/04/09 10:49:19;;;;;;;;;;;;;;;;;;2199573;59;1274;-73
2022/04/09 10:51:59;;;;;;;;;;;;;;;;;;2206872;59;1298;-73
2022/04/09 10:54:33;;;;;;;;;;;;;;;;;;2204352;59;2771;-73
2022/04/09 10:57:10;;;;;;;;;;;;;;;;;;2203120;59;1844;-72
2022/04/09 10:59:56;;;;;;;;;;;;;;;;;;2208414;59;1188;-72
2022/04/09 11:02:32;;;;;;;;;;;;;;;;;;2213169;59;1130;-73
2022/04/09 11:05:20;;;;;;;;;;;;;;;;;;2199241;59;1941;-72
2022/04/09 11:08:06;;;;;;;;;;;;;;;;;;2198562;59;1151;-73
2022/04/09 11:10:40;;;;;;;;;;;;;;;;;;2204185;59;1250;-73
2022/04/09 11:13:13;;;;;;;;;;;;;;;;;;2202992;59;1689;-72
2022/04/09 11:15:56;;;;;;;;;;;;;;;;;;2203327;59;1322;-73
2022/04/09 11:18:30;;;;;;;;;;;;;;;;;;2195600;59;1855;-72
2022/04/09 11:21:14;;;;;;;;;;;;;;;;;;2197571;59;1990;-72
2022/04/09 11:23:47;;;;;;;;;;;;;;;;;;2199987;59;2518;-73
2022/04/09 11:26:20;;;;;;;;;;;;;;;;;;2200707;59;2540;-73
2022/04/09 11:28:53;;;;;;;;;;;;;;;;;;2198158;59;2306;-72
2022/04/09 11:31:29;;;;;;;;;;;;;;;;;;2205072;59;1766;-72
2022/04/09 11:34:04;;;;;;;;;;;;;;;;;;2200630;59;1253;-72
2022/04/09 11:36:37;;;;;;;;;;;;;;;;;;2201766;59;1630;-73
2022/04/09 11:39:11;;;;;;;;;;;;;;;;;;2200752;59;1320;-73
2022/04/09 11:41:47;;;;;;;;;;;;;;;;;;2199038;59;1561;-72
2022/04/09 11:44:30;;;;;;;;;;;;;;;;;;2197803;59;1932;-73
2022/04/09 11:47:12;;;;;;;;;;;;;;;;;;2202299;59;1395;-72
2022/04/09 11:49:47;;;;;;;;;;;;;;;;;;2199815;59;7616;-72
2022/04/09 11:52:27;;;;;;;;;;;;;;;;;;2200790;59;1410;-73
2022/04/09 11:55:05;;;;;;;;;;;;;;;;;;2206756;59;1265;-73
2022/04/09 11:57:38;;;;;;;;;;;;;;;;;;2201713;66;1185;-73
2022/04/09 12:00:12;;;;;;;;;;;;;;;;;;2200744;59;1744;-73
2022/04/09 12:02:48;;;;;;;;;;;;;;;;;;2206706;66;1136;-72
2022/04/09 12:05:21;;;;;;;;;;;;;;;;;;2206351;59;1981;-72
2022/04/09 12:07:55;;;;;;;;;;;;;;;;;;2204753;59;1131;-72
2022/04/09 12:10:29;;;;;;;;;;;;;;;;;;2207965;59;1251;-72
2022/04/09 12:13:03;;;;;;;;;;;;;;;;;;2203049;59;1494;-77
2022/04/09 12:15:37;;;;;;;;;;;;;;;;;;2202991;59;1604;-72
2022/04/09 12:18:26;;;;;;;;;;;;;;;;;;2205635;59;1197;-72
2022/04/09 12:21:02;;;;;;;;;;;;;;;;;;2200939;59;2072;-72
2022/04/09 12:23:36;;;;;;;;;;;;;;;;;;2208148;66;1293;-72
2022/04/09 12:26:23;;;;;;;;;;;;;;;;;;2201025;59;1941;-72
2022/04/09 12:29:09;;;;;;;;;;;;;;;;;;2198268;59;2528;-72
2022/04/09 12:31:43;;;;;;;;;;;;;;;;;;2197716;59;1665;-72
2022/04/09 12:34:19;;;;;;;;;;;;;;;;;;2200827;59;1244;-72
2022/04/09 12:37:02;;;;;;;;;;;;;;;;;;2200692;59;1743;-72
2022/04/09 12:39:37;;;;;;;;;;;;;;;;;;2201787;59;1810;-73
2022/04/09 12:42:10;;;;;;;;;;;;;;;;;;2197891;59;1341;-73
2022/04/09 12:44:44;;;;;;;;;;;;;;;;;;2197038;59;1941;-72
2022/04/09 12:47:23;;;;;;;;;;;;;;;;;;2198426;59;1259;-72
2022/04/09 12:49:59;;;;;;;;;;;;;;;;;;2198765;59;1345;-72
2022/04/09 12:52:32;;;;;;;;;;;;;;;;;;2205384;59;1116;-72
2022/04/09 12:55:06;;;;;;;;;;;;;;;;;;2200609;59;1893;-73
2022/04/09 12:57:39;;;;;;;;;;;;;;;;;;2208399;60;1125;-72
2022/04/09 13:00:13;;;;;;;;;;;;;;;;;;2207089;66;1271;-73
2022/04/09 13:02:47;;;;;;;;;;;;;;;;;;2199891;59;1775;-72
2022/04/09 13:05:23;;;;;;;;;;;;;;;;;;2204752;59;1984;-72
2022/04/09 13:07:56;;;;;;;;;;;;;;;;;;2204032;66;1078;-73
2022/04/09 13:10:29;;;;;;;;;;;;;;;;;;2205723;59;1085;-72
2022/04/09 13:13:02;;;;;;;;;;;;;;;;;;2197556;59;1176;-72
2022/04/09 13:15:35;;;;;;;;;;;;;;;;;;2203642;59;1259;-72
2022/04/09 13:18:08;;;;;;;;;;;;;;;;;;2201919;59;1584;-72
2022/04/09 13:20:44;;;;;;;;;;;;;;;;;;2199064;59;2176;-72
2022/04/09 13:23:18;;;;;;;;;;;;;;;;;;2201815;59;1273;-72
2022/04/09 13:25:53;;;;;;;;;;;;;;;;;;2200951;59;1981;-73
2022/04/09 13:28:28;;;;;;;;;;;;;;;;;;2201360;59;2506;-72
2022/04/09 13:31:01;;;;;;;;;;;;;;;;;;2204525;59;2324;-73
2022/04/09 13:33:34;;;;;;;;;;;;;;;;;;2205236;59;1238;-72
2022/04/09 13:36:10;;;;;;;;;;;;;;;;;;2199036;59;1879;-73
2022/04/09 13:38:44;;;;;;;;;;;;;;;;;;2199501;59;1465;-72
2022/04/09 13:41:18;;;;;;;;;;;;;;;;;;2200027;59;1266;-72
2022/04/09 13:43:51;;;;;;;;;;;;;;;;;;2198489;59;1816;-72
2022/04/09 13:46:24;;;;;;;;;;;;;;;;;;2199233;59;1985;-72
2022/04/09 13:48:57;;;;;;;;;;;;;;;;;;2202828;59;1287;-72
2022/04/09 13:51:33;;;;;;;;;;;;;;;;;;2200600;59;1183;-73
2022/04/09 13:54:07;;;;;;;;;;;;;;;;;;2203017;66;1321;-72
2022/04/09 13:56:40;;;;;;;;;;;;;;;;;;2202938;59;1584;-72
2022/04/09 13:59:13;;;;;;;;;;;;;;;;;;2199604;59;1264;-72
2022/04/09 14:01:46;;;;;;;;;;;;;;;;;;2202279;66;1161;-73
2022/04/09 14:04:20;;;;;;;;;;;;;;;;;;2203362;59;1751;-72
2022/04/09 14:06:56;;;;;;;;;;;;;;;;;;2209243;66;1992;-72
2022/04/09 14:09:29;;;;;;;;;;;;;;;;;;2205923;59;1181;-72
2022/04/09 14:12:02;;;;;;;;;;;;;;;;;;2202241;59;1257;-72
2022/04/09 14:14:35;;;;;;;;;;;;;;;;;;2200655;59;1568;-73
2022/04/09 14:17:08;;;;;;;;;;;;;;;;;;2199145;67;1420;-72
2022/04/09 14:19:42;;;;;;;;;;;;;;;;;;2203948;59;2199;-72
2022/04/09 14:22:18;;;;;;;;;;;;;;;;;;2202893;59;1590;-72
2022/04/09 14:24:51;;;;;;;;;;;;;;;;;;2202078;59;1928;-72
2022/04/09 14:27:25;;;;;;;;;;;;;;;;;;2209271;59;1278;-73
2022/04/09 14:29:58;;;;;;;;;;;;;;;;;;2204122;59;2446;-72
2022/04/09 14:32:31;;;;;;;;;;;;;;;;;;2204973;59;2698;-72
2022/04/09 14:35:05;;;;;;;;;;;;;;;;;;2204864;59;1412;-72
2022/04/09 14:37:41;;;;;;;;;;;;;;;;;;2203960;59;1251;-72
2022/04/09 14:40:14;;;;;;;;;;;;;;;;;;2201980;59;1709;-72
2022/04/09 14:42:47;;;;;;;;;;;;;;;;;;2200724;59;1633;-72
2022/04/09 14:45:21;;;;;;;;;;;;;;;;;;2197685;59;1932;-72
2022/04/09 14:47:54;;;;;;;;;;;;;;;;;;2198169;59;1897;-72
2022/04/09 14:50:27;;;;;;;;;;;;;;;;;;2198415;59;1336;-72
2022/04/09 14:53:04;;;;;;;;;;;;;;;;;;2204823;59;1073;-73
2022/04/09 14:55:37;;;;;;;;;;;;;;;;;;2204484;66;1237;-72
2022/04/09 14:58:13;;;;;;;;;;;;;;;;;;2198985;59;1317;-72
2022/04/09 15:00:46;;;;;;;;;;;;;;;;;;2206498;66;1179;-72
2022/04/09 15:03:20;;;;;;;;;;;;;;;;;;2204280;66;1194;-72
2022/04/09 15:05:53;;;;;;;;;;;;;;;;;;2204532;59;1932;-72
2022/04/09 15:08:29;;;;;;;;;;;;;;;;;;2202336;66;1078;-72
2022/04/09 15:11:02;;;;;;;;;;;;;;;;;;2200788;59;1692;-72
2022/04/09 15:13:35;;;;;;;;;;;;;;;;;;2200168;59;1280;-72
2022/04/09 15:16:08;;;;;;;;;;;;;;;;;;2205995;59;1228;-72
2022/04/09 15:18:45;;;;;;;;;;;;;;;;;;2207325;59;1842;-72
2022/04/09 15:21:19;;;;;;;;;;;;;;;;;;2205654;59;1204;-72
2022/04/09 15:23:55;;;;;;;;;;;;;;;;;;2200550;59;1726;-72
2022/04/09 15:26:28;;;;;;;;;;;;;;;;;;2211619;59;1935;-72
2022/04/09 15:29:01;;;;;;;;;;;;;;;;;;2204967;59;2413;-72
2022/04/09 15:31:34;;;;;;;;;;;;;;;;;;2203192;66;1389;-72
2022/04/09 15:34:08;;;;;;;;;;;;;;;;;;2203625;59;1706;-72
2022/04/09 15:36:41;;;;;;;;;;;;;;;;;;2208104;59;1298;-72
2022/04/09 15:39:17;;;;;;;;;;;;;;;;;;2205907;66;1209;-72
2022/04/09 15:41:50;;;;;;;;;;;;;;;;;;2199006;59;1950;-72
2022/04/09 15:44:23;;;;;;;;;;;;;;;;;;2206224;59;1628;-72
2022/04/09 15:46:57;;;;;;;;;;;;;;;;;;2204895;59;1993;-72
2022/04/09 15:49:30;;;;;;;;;;;;;;;;;;2203010;59;1283;-72
2022/04/09 15:52:04;;;;;;;;;;;;;;;;;;2205314;59;1093;-72
2022/04/09 15:54:42;;;;;;;;;;;;;;;;;;2205969;59;1242;-71
2022/04/09 15:57:15;;;;;;;;;;;;;;;;;;2206324;59;1443;-72
2022/04/09 15:59:49;;;;;;;;;;;;;;;;;;2203845;66;1247;-72
2022/04/09 16:02:24;;;;;;;;;;;;;;;;;;2211318;59;1378;-72
2022/04/09 16:04:57;;;;;;;;;;;;;;;;;;2200649;59;1677;-72
2022/04/09 16:07:31;;;;;;;;;;;;;;;;;;2203350;59;1993;-72
2022/04/09 16:10:07;;;;;;;;;;;;;;;;;;2202991;59;1224;-72
2022/04/09 16:12:41;;;;;;;;;;;;;;;;;;2206770;59;1730;-72
2022/04/09 16:15:14;;;;;;;;;;;;;;;;;;2195248;59;1250;-72
2022/04/09 16:17:49;;;;;;;;;;;;;;;;;;2203533;59;1097;-72
2022/04/09 16:20:24;;;;;;;;;;;;;;;;;;2202768;59;1858;-72
2022/04/09 16:23:00;;;;;;;;;;;;;;;;;;2199891;59;1188;-72
2022/04/09 16:25:36;;;;;;;;;;;;;;;;;;2200122;59;1920;-72
2022/04/09 16:28:09;;;;;;;;;;;;;;;;;;2198730;59;1499;-72
2022/04/09 16:30:43;;;;;;;;;;;;;;;;;;2200270;59;1308;-72
2022/04/09 16:33:16;;;;;;;;;;;;;;;;;;2204895;59;1288;-72
2022/04/09 16:35:49;;;;;;;;;;;;;;;;;;2207067;59;1274;-72
2022/04/09 16:38:23;;;;;;;;;;;;;;;;;;2205605;59;1727;-72
2022/04/09 16:40:59;;;;;;;;;;;;;;;;;;2208481;59;1169;-72
2022/04/09 16:43:32;;;;;;;;;;;;;;;;;;2204584;66;1258;-72
2022/04/09 16:46:06;;;;;;;;;;;;;;;;;;2200169;59;1932;-72
2022/04/09 16:48:39;;;;;;;;;;;;;;;;;;2198349;59;1645;-72
2022/04/09 16:51:12;;;;;;;;;;;;;;;;;;2199116;59;1205;-72
2022/04/09 16:53:46;;;;;;;;;;;;;;;;;;2207052;66;1246;-71
2022/04/09 16:56:24;;;;;;;;;;;;;;;;;;2205564;59;1633;-72
2022/04/09 16:58:58;;;;;;;;;;;;;;;;;;2203030;59;1742;-72
2022/04/09 17:01:31;;;;;;;;;;;;;;;;;;2200273;59;1384;-72
2022/04/09 17:04:06;;;;;;;;;;;;;;;;;;2201653;59;1588;-72
2022/04/09 17:06:39;;;;;;;;;;;;;;;;;;2201382;59;1961;-72
2022/04/09 17:09:13;;;;;;;;;;;;;;;;;;2203721;66;1080;-72
2022/04/09 17:11:49;;;;;;;;;;;;;;;;;;2204238;59;1157;-72
2022/04/09 17:14:22;;;;;;;;;;;;;;;;;;2202231;59;1660;-72
2022/04/09 17:16:56;;;;;;;;;;;;;;;;;;2209499;66;1070;-72
2022/04/09 17:19:29;;;;;;;;;;;;;;;;;;2204173;59;2031;-72
2022/04/09 17:22:03;;;;;;;;;;;;;;;;;;2203495;66;1037;-72
2022/04/09 17:24:36;;;;;;;;;;;;;;;;;;2201643;59;1914;-72
2022/04/09 17:27:13;;;;;;;;;;;;;;;;;;2200139;59;1996;-72
2022/04/09 17:29:46;;;;;;;;;;;;;;;;;;2201766;59;2108;-72
2022/04/09 17:32:19;;;;;;;;;;;;;;;;;;2200359;59;1080;-72
2022/04/09 17:34:52;;;;;;;;;;;;;;;;;;2202467;59;2392;-72
2022/04/09 17:37:26;;;;;;;;;;;;;;;;;;2205270;59;1363;-72
2022/04/09 17:39:59;;;;;;;;;;;;;;;;;;2200628;59;1234;-72
2022/04/09 17:42:35;;;;;;;;;;;;;;;;;;2205454;59;1379;-72
2022/04/09 17:45:09;;;;;;;;;;;;;;;;;;2204051;59;1804;-72
2022/04/09 17:47:43;;;;;;;;;;;;;;;;;;2199399;59;1933;-72
2022/04/09 17:50:16;;;;;;;;;;;;;;;;;;2203350;59;1687;-72
2022/04/09 17:52:49;;;;;;;;;;;;;;;;;;2201607;59;1172;-72